Time;durP1;ratioP1;P1;durP2;ratioP2;P2;SDS_P1;SDS_P2;PMS_P1;PMS_P2;Temp;Humidity;BMP_temperature;BMP_pressure;BME280_temperature;BME280_humidity;BME280_pressure;Samples;Min_cycle;Max_cycle;Signal;HPM_P1;HPM_P2
2023/11/16 00:00:48;;;;;;;6.68;1.10;;;8.80;99.90;;;;;;4936518;29;20056;-82
2023/11/16 00:03:16;;;;;;;9.90;1.70;;;9.20;99.90;;;;;;4934195;29;20136;-82
2023/11/16 00:05:43;;;;;;;4.75;1.00;;;9.50;99.90;;;;;;4921645;29;20413;-82
2023/11/16 00:08:10;;;;;;;6.53;1.00;;;8.70;99.90;;;;;;4921358;29;20036;-82
2023/11/16 00:10:39;;;;;;;6.53;1.02;;;8.70;99.90;;;;;;4914831;29;20092;-82
2023/11/16 00:13:06;;;;;;;9.60;1.05;;;8.70;99.90;;;;;;4932331;29;20037;-82
2023/11/16 00:15:33;;;;;;;6.88;1.08;;;8.50;99.90;;;;;;4922818;29;20466;-82
2023/11/16 00:18:03;;;;;;;6.15;0.90;;;8.70;99.90;;;;;;4921449;29;20088;-82
2023/11/16 00:20:30;;;;;;;6.53;1.10;;;8.60;99.90;;;;;;4940713;29;20058;-82
2023/11/16 00:22:56;;;;;;;6.50;1.30;;;8.70;99.90;;;;;;4927299;29;20490;-82
2023/11/16 00:25:23;;;;;;;6.38;1.20;;;8.80;99.90;;;;;;4905603;29;20033;-82
2023/11/16 00:27:50;;;;;;;8.93;1.13;;;9.50;99.90;;;;;;4927431;29;20183;-82
2023/11/16 00:30:17;;;;;;;9.75;1.25;;;9.40;99.90;;;;;;4908452;29;20040;-82
2023/11/16 00:32:48;;;;;;;5.88;1.25;;;8.70;99.90;;;;;;4939440;29;20086;-82
2023/11/16 00:35:14;;;;;;;4.80;0.90;;;8.70;99.90;;;;;;4930247;29;20402;-82
2023/11/16 00:37:41;;;;;;;8.45;1.08;;;8.70;99.90;;;;;;4914593;29;20037;-81
2023/11/16 00:40:10;;;;;;;12.25;1.20;;;8.70;99.90;;;;;;4914644;29;20383;-82
2023/11/16 00:42:37;;;;;;;4.60;1.10;;;8.70;99.90;;;;;;4914538;29;20044;-82
2023/11/16 00:45:03;;;;;;;4.88;1.00;;;8.70;99.90;;;;;;4923074;29;20456;-82
2023/11/16 00:47:30;;;;;;;9.13;1.00;;;8.70;99.90;;;;;;4918592;29;20056;-82
2023/11/16 00:49:57;;;;;;;8.20;1.27;;;8.70;99.90;;;;;;4914541;29;20048;-82
2023/11/16 00:52:24;;;;;;;9.57;1.30;;;8.70;99.90;;;;;;4916934;29;20044;-82
2023/11/16 00:54:51;;;;;;;7.43;1.20;;;8.70;99.90;;;;;;4923939;29;20052;-82
2023/11/16 00:57:20;;;;;;;7.47;1.00;;;8.70;99.90;;;;;;4926431;29;20052;-82
2023/11/16 00:59:46;;;;;;;6.63;0.93;;;8.80;99.90;;;;;;4902474;29;1103072;-82
2023/11/16 01:02:14;;;;;;;6.47;0.98;;;8.80;99.90;;;;;;4921467;29;20051;-82
2023/11/16 01:04:41;;;;;;;8.48;1.08;;;9.40;99.90;;;;;;4938997;29;20465;-82
2023/11/16 01:07:10;;;;;;;2.53;0.68;;;9.20;99.90;;;;;;4930162;29;20044;-82
2023/11/16 01:09:37;;;;;;;8.10;1.23;;;8.90;99.90;;;;;;4914873;29;20051;-82
2023/11/16 01:12:07;;;;;;;5.68;1.55;;;8.90;99.90;;;;;;4917984;29;20048;-82
2023/11/16 01:14:33;;;;;;;8.07;1.00;;;9.00;99.90;;;;;;4915218;29;20036;-82
2023/11/16 01:17:03;;;;;;;5.70;0.85;;;9.00;99.90;;;;;;4949195;29;20066;-82
2023/11/16 01:19:32;;;;;;;5.40;0.95;;;9.00;99.90;;;;;;4920544;29;20421;-82
2023/11/16 01:22:00;;;;;;;12.68;1.48;;;9.10;99.90;;;;;;4914901;29;20421;-82
2023/11/16 01:24:29;;;;;;;6.00;1.13;;;9.00;99.90;;;;;;4914858;29;20417;-82
2023/11/16 01:27:13;;;;;;;6.13;1.38;;;9.20;99.90;;;;;;4938617;29;20048;-82
2023/11/16 01:29:42;;;;;;;10.13;1.20;;;8.90;99.90;;;;;;4925481;29;20048;-82
2023/11/16 01:32:09;;;;;;;6.88;1.00;;;8.80;99.90;;;;;;4921867;29;20052;-82
2023/11/16 01:34:35;;;;;;;10.88;1.35;;;8.90;99.90;;;;;;4925922;29;20481;-82
2023/11/16 01:37:03;;;;;;;5.28;1.15;;;9.00;99.90;;;;;;4933530;29;20043;-82
2023/11/16 01:39:33;;;;;;;6.05;1.13;;;8.90;99.90;;;;;;4922101;29;20044;-82
2023/11/16 01:42:00;;;;;;;5.78;0.88;;;9.00;99.90;;;;;;4914901;29;20102;-82
2023/11/16 01:44:26;;;;;;;7.68;1.00;;;8.90;99.90;;;;;;4930136;29;20079;-82
2023/11/16 01:46:53;;;;;;;4.10;0.85;;;8.90;99.90;;;;;;4924618;29;20040;-82
2023/11/16 01:49:20;;;;;;;5.65;0.93;;;8.80;99.90;;;;;;4917006;29;20040;-82
2023/11/16 01:51:47;;;;;;;3.92;0.75;;;9.40;99.90;;;;;;4929955;29;20048;-82
2023/11/16 01:54:17;;;;;;;4.57;0.93;;;9.20;99.90;;;;;;4947581;29;20036;-82
2023/11/16 01:56:46;;;;;;;10.43;0.77;;;8.90;99.90;;;;;;4949078;29;20138;-82
2023/11/16 01:59:14;;;;;;;3.17;0.63;;;9.00;99.90;;;;;;4920550;29;20518;-82
2023/11/16 02:01:42;;;;;;;3.72;0.73;;;9.30;99.90;;;;;;4921247;29;20148;-82
2023/11/16 02:04:09;;;;;;;7.68;0.95;;;8.60;99.90;;;;;;4918616;29;20071;-82
2023/11/16 02:06:38;;;;;;;8.32;0.80;;;8.50;99.90;;;;;;4951521;29;20048;-82
2023/11/16 02:09:04;;;;;;;3.15;0.43;;;8.50;99.90;;;;;;4934065;29;20051;-82
2023/11/16 02:11:31;;;;;;;5.35;1.00;;;8.50;99.90;;;;;;4946089;29;20417;-82
2023/11/16 02:13:58;;;;;;;5.90;0.90;;;8.50;99.90;;;;;;4918111;29;20139;-81
2023/11/16 02:16:24;;;;;;;6.40;1.05;;;8.50;99.90;;;;;;4933790;29;20382;-82
2023/11/16 02:18:52;;;;;;;5.78;1.10;;;8.50;99.90;;;;;;4917865;29;20079;-82
2023/11/16 02:21:18;;;;;;;6.90;1.83;;;8.90;99.90;;;;;;4918059;29;20394;-82
2023/11/16 02:23:47;;;;;;;3.60;0.88;;;8.40;99.90;;;;;;4933637;29;20051;-82
2023/11/16 02:26:14;;;;;;;8.07;1.02;;;8.30;99.90;;;;;;4939761;29;20052;-82
2023/11/16 02:28:41;;;;;;;4.75;0.90;;;8.30;99.90;;;;;;4952586;29;20046;-82
2023/11/16 02:31:07;;;;;;;4.90;1.00;;;8.40;99.90;;;;;;4923819;29;20044;-82
2023/11/16 02:33:34;;;;;;;6.53;1.05;;;8.10;99.90;;;;;;4921134;29;20132;-82
2023/11/16 02:36:01;;;;;;;5.47;0.65;;;8.00;99.90;;;;;;4942456;29;20408;-82
2023/11/16 02:38:30;;;;;;;5.82;0.93;;;8.00;99.90;;;;;;4920784;29;20036;-82
2023/11/16 02:40:59;;;;;;;4.95;0.82;;;7.90;99.90;;;;;;4917438;29;20055;-82
2023/11/16 02:43:28;;;;;;;6.90;1.08;;;8.00;99.90;;;;;;4917594;29;20044;-82
2023/11/16 02:45:55;;;;;;;6.00;0.70;;;7.90;99.90;;;;;;4929921;29;20052;-82
2023/11/16 02:48:21;;;;;;;3.38;0.90;;;7.70;99.90;;;;;;4917323;29;20044;-82
2023/11/16 02:50:49;;;;;;;2.30;0.60;;;7.90;99.90;;;;;;4932621;29;20461;-82
2023/11/16 02:53:15;;;;;;;3.53;0.88;;;7.70;99.90;;;;;;4942561;29;20047;-82
2023/11/16 02:55:42;;;;;;;5.78;1.27;;;7.60;99.90;;;;;;4935595;29;20044;-82
2023/11/16 02:58:09;;;;;;;4.93;1.25;;;8.00;99.90;;;;;;4917351;29;20045;-82
2023/11/16 03:00:36;;;;;;;10.77;0.90;;;7.50;99.90;;;;;;4929479;29;20056;-82
2023/11/16 03:03:05;;;;;;;4.72;0.90;;;8.20;99.90;;;;;;4932473;29;20049;-82
2023/11/16 03:05:32;;;;;;;5.05;0.90;;;7.40;99.90;;;;;;4950564;29;20119;-82
2023/11/16 03:07:59;;;;;;;6.88;0.77;;;8.20;99.90;;;;;;4940014;29;20045;-82
2023/11/16 03:10:26;;;;;;;7.78;0.80;;;8.10;99.90;;;;;;4930707;29;20396;-82
2023/11/16 03:12:54;;;;;;;2.28;0.68;;;7.80;99.90;;;;;;4916256;29;20048;-82
2023/11/16 03:15:21;;;;;;;3.70;0.73;;;7.60;99.90;;;;;;4932589;29;20036;-82
2023/11/16 03:17:48;;;;;;;4.40;0.80;;;7.30;99.90;;;;;;4916675;29;20044;-82
2023/11/16 03:20:17;;;;;;;4.07;0.73;;;7.30;99.90;;;;;;4917010;29;20045;-82
2023/11/16 03:22:44;;;;;;;3.97;0.70;;;7.30;99.90;;;;;;4917553;29;20052;-82
2023/11/16 03:25:12;;;;;;;3.58;0.73;;;7.30;99.90;;;;;;4943344;29;20447;-82
2023/11/16 03:27:42;;;;;;;7.22;0.70;;;7.30;99.90;;;;;;4916883;29;20124;-82
2023/11/16 03:30:09;;;;;;;7.25;0.82;;;7.30;99.90;;;;;;4941449;29;20047;-82
2023/11/16 03:32:35;;;;;;;6.38;0.70;;;7.30;99.90;;;;;;4935187;29;20059;-82
2023/11/16 03:35:03;;;;;;;5.25;0.80;;;8.00;99.90;;;;;;4937033;29;20037;-81
2023/11/16 03:37:31;;;;;;;4.57;0.70;;;7.20;99.90;;;;;;4935756;29;20044;-82
2023/11/16 03:39:58;;;;;;;7.63;0.80;;;7.30;99.90;;;;;;4926416;29;20093;-82
2023/11/16 03:42:24;;;;;;;3.33;0.52;;;7.20;99.90;;;;;;4913066;29;20041;-82
2023/11/16 03:44:51;;;;;;;4.60;0.70;;;7.20;99.90;;;;;;4913170;29;20124;-82
2023/11/16 03:47:18;;;;;;;8.80;0.90;;;7.10;99.90;;;;;;4916244;29;20068;-82
2023/11/16 03:49:44;;;;;;;4.18;0.65;;;7.20;99.90;;;;;;4931901;29;20044;-82
2023/11/16 03:52:11;;;;;;;4.80;0.63;;;7.20;99.90;;;;;;4916342;29;20045;-82
2023/11/16 03:54:38;;;;;;;5.82;0.63;;;8.00;99.90;;;;;;4916354;29;20549;-82
2023/11/16 03:57:04;;;;;;;3.88;0.60;;;7.20;99.90;;;;;;4916131;29;20041;-82
2023/11/16 03:59:31;;;;;;;4.35;0.80;;;7.30;99.90;;;;;;4929935;29;20497;-82
2023/11/16 04:01:57;;;;;;;4.93;0.75;;;7.10;99.90;;;;;;4943017;29;20048;-82
2023/11/16 04:04:24;;;;;;;5.18;0.60;;;7.80;99.90;;;;;;4929916;29;20051;-82
2023/11/16 04:06:51;;;;;;;3.58;0.80;;;7.00;99.90;;;;;;4931727;29;20036;-82
2023/11/16 04:09:17;;;;;;;2.95;0.60;;;7.10;99.90;;;;;;4935232;29;20055;-82
2023/11/16 04:11:45;;;;;;;2.30;0.57;;;7.00;99.90;;;;;;4950256;29;20044;-82
2023/11/16 04:14:15;;;;;;;3.03;0.65;;;7.10;99.90;;;;;;4910104;29;20495;-82
2023/11/16 04:16:42;;;;;;;3.83;0.73;;;6.90;99.90;;;;;;4933696;29;20482;-82
2023/11/16 04:19:09;;;;;;;4.15;0.50;;;6.80;99.90;;;;;;4931506;29;20032;-82
2023/11/16 04:21:41;;;;;;;3.03;0.60;;;7.70;99.90;;;;;;4929677;29;20485;-82
2023/11/16 04:24:10;;;;;;;3.08;0.73;;;6.90;99.90;;;;;;4934622;29;20066;-82
2023/11/16 04:26:37;;;;;;;4.13;0.82;;;6.70;99.90;;;;;;4918935;29;20055;-82
2023/11/16 04:29:06;;;;;;;3.83;0.68;;;6.80;99.90;;;;;;4931219;29;20045;-82
2023/11/16 04:31:34;;;;;;;3.83;0.88;;;6.60;99.90;;;;;;4930881;29;20052;-82
2023/11/16 04:34:01;;;;;;;6.10;0.80;;;6.60;99.90;;;;;;4915547;29;20035;-82
2023/11/16 04:36:31;;;;;;;5.78;0.70;;;6.60;99.90;;;;;;4919132;29;20041;-82
2023/11/16 04:38:58;;;;;;;3.50;0.60;;;6.50;99.90;;;;;;4927112;29;20511;-82
2023/11/16 04:41:25;;;;;;;3.97;0.85;;;6.60;99.90;;;;;;4915431;29;20130;-82
2023/11/16 04:43:54;;;;;;;6.90;0.73;;;7.00;99.90;;;;;;4907220;29;20127;-82
2023/11/16 04:46:27;;;;;;;7.38;1.58;;;6.50;99.90;;;;;;4914815;29;20072;-82
2023/11/16 04:48:54;;;;;;;4.95;0.60;;;6.40;99.90;;;;;;4914181;29;20044;-82
2023/11/16 04:51:21;;;;;;;0.98;0.50;;;6.40;99.90;;;;;;4915386;29;20099;-82
2023/11/16 04:53:49;;;;;;;3.70;0.60;;;6.40;99.90;;;;;;4936147;29;20083;-82
2023/11/16 04:56:16;;;;;;;3.42;0.90;;;6.40;99.90;;;;;;4915153;29;20036;-82
2023/11/16 04:58:44;;;;;;;3.70;0.80;;;6.50;99.90;;;;;;4945144;29;20047;-82
2023/11/16 05:01:14;;;;;;;4.93;0.65;;;6.70;99.90;;;;;;4933809;29;20058;-82
2023/11/16 05:03:44;;;;;;;2.65;0.68;;;7.20;99.90;;;;;;4930640;29;20052;-82
2023/11/16 05:06:12;;;;;;;2.42;0.80;;;6.60;99.90;;;;;;4925063;29;20044;-82
2023/11/16 05:08:40;;;;;;;3.80;0.60;;;6.60;99.90;;;;;;4929473;29;20044;-82
2023/11/16 05:11:07;;;;;;;3.65;0.70;;;7.20;99.90;;;;;;4915064;29;20048;-82
2023/11/16 05:13:34;;;;;;;1.55;0.57;;;6.60;99.90;;;;;;4914809;29;20100;-82
2023/11/16 05:16:03;;;;;;;3.78;0.70;;;7.10;99.90;;;;;;4922530;29;20116;-82
2023/11/16 05:18:31;;;;;;;1.98;0.70;;;6.60;99.90;;;;;;4949049;29;20044;-82
2023/11/16 05:21:00;;;;;;;5.60;0.70;;;7.30;99.90;;;;;;4933832;29;20485;-82
2023/11/16 05:23:27;;;;;;;2.88;0.70;;;6.60;99.90;;;;;;4937603;29;20054;-82
2023/11/16 05:25:55;;;;;;;3.53;0.70;;;6.50;99.90;;;;;;4920191;29;20123;-82
2023/11/16 05:28:21;;;;;;;2.67;0.70;;;6.50;99.90;;;;;;4907074;29;20097;-82
2023/11/16 05:30:50;;;;;;;1.77;0.50;;;6.50;99.90;;;;;;4911487;29;20088;-81
2023/11/16 05:33:18;;;;;;;1.92;0.60;;;6.40;99.90;;;;;;4959311;29;20576;-82
2023/11/16 05:35:48;;;;;;;0.93;0.47;;;6.40;99.90;;;;;;4926474;29;20041;-82
2023/11/16 05:38:17;;;;;;;3.40;0.80;;;7.00;99.90;;;;;;4915724;29;20051;-82
2023/11/16 05:40:44;;;;;;;6.55;1.10;;;6.20;99.90;;;;;;4941300;29;20045;-82
2023/11/16 05:43:11;;;;;;;3.65;0.60;;;6.40;99.90;;;;;;4930298;29;20100;-82
2023/11/16 05:45:40;;;;;;;2.50;0.63;;;6.10;99.90;;;;;;4930031;29;20049;-82
2023/11/16 05:48:08;;;;;;;1.80;0.50;;;6.10;99.90;;;;;;4930677;29;20049;-82
2023/11/16 05:50:38;;;;;;;1.17;0.35;;;6.40;99.90;;;;;;4914395;29;20073;-82
2023/11/16 05:53:06;;;;;;;1.58;0.60;;;5.90;99.90;;;;;;4930407;29;20603;-81
2023/11/16 05:55:34;;;;;;;4.97;0.88;;;6.40;99.90;;;;;;4930359;29;20036;-82
2023/11/16 05:58:00;;;;;;;3.72;1.20;;;6.20;99.90;;;;;;4929774;29;20045;-82
2023/11/16 06:00:28;;;;;;;2.78;0.80;;;5.90;99.90;;;;;;4929699;29;20772;-82
2023/11/16 06:02:54;;;;;;;1.23;0.50;;;6.00;99.90;;;;;;4914334;29;20052;-81
2023/11/16 06:05:22;;;;;;;2.83;0.68;;;5.60;99.90;;;;;;4926947;29;20051;-82
2023/11/16 06:07:48;;;;;;;4.90;0.73;;;5.60;99.90;;;;;;4923308;29;20048;-82
2023/11/16 06:10:16;;;;;;;4.70;0.60;;;5.50;99.90;;;;;;4918956;29;20191;-81
2023/11/16 06:12:46;;;;;;;2.33;0.80;;;5.50;99.90;;;;;;4922034;29;20045;-81
2023/11/16 06:15:16;;;;;;;3.20;0.80;;;5.50;99.90;;;;;;4930227;29;20402;-81
2023/11/16 06:17:43;;;;;;;6.80;1.30;;;5.40;99.90;;;;;;4929704;29;20093;-82
2023/11/16 06:20:10;;;;;;;2.72;0.80;;;5.40;99.90;;;;;;4927136;29;20120;-81
2023/11/16 06:22:38;;;;;;;5.43;0.98;;;5.40;99.90;;;;;;4929730;29;20520;-80
2023/11/16 06:25:05;;;;;;;2.63;0.98;;;5.40;99.90;;;;;;4914234;29;20494;-81
2023/11/16 06:27:32;;;;;;;5.47;1.10;;;5.30;99.90;;;;;;4930723;29;20046;-81
2023/11/16 06:29:59;;;;;;;5.78;1.35;;;5.50;99.90;;;;;;4941249;29;20497;-81
2023/11/16 06:32:27;;;;;;;2.05;0.90;;;5.40;99.90;;;;;;4924632;29;20394;-81
2023/11/16 06:34:54;;;;;;;6.10;0.90;;;5.40;99.90;;;;;;4945640;29;20890;-81
2023/11/16 06:37:21;;;;;;;3.25;0.77;;;5.50;99.90;;;;;;4937044;29;20091;-81
2023/11/16 06:39:48;;;;;;;2.30;0.73;;;5.70;99.90;;;;;;4931526;29;20115;-81
2023/11/16 06:42:14;;;;;;;4.50;0.90;;;5.40;99.90;;;;;;4945603;29;20144;-81
2023/11/16 06:44:41;;;;;;;4.57;0.90;;;5.50;99.90;;;;;;4908976;29;20048;-81
2023/11/16 06:47:08;;;;;;;4.00;0.90;;;5.40;99.90;;;;;;4907099;29;20045;-81
2023/11/16 06:49:37;;;;;;;4.28;0.70;;;5.30;99.90;;;;;;4917447;29;20454;-81
2023/11/16 06:52:05;;;;;;;1.65;0.70;;;5.40;99.90;;;;;;4917288;29;20063;-81
2023/11/16 06:54:33;;;;;;;7.85;0.77;;;5.40;99.90;;;;;;4944844;29;20040;-82
2023/11/16 06:57:00;;;;;;;5.45;0.90;;;5.10;99.90;;;;;;4918313;29;20040;-81
2023/11/16 06:59:27;;;;;;;5.55;0.93;;;5.10;99.90;;;;;;4927804;29;20043;-81
2023/11/16 07:01:53;;;;;;;1.63;0.70;;;5.00;99.90;;;;;;4932625;29;20056;-81
2023/11/16 07:04:21;;;;;;;1.15;0.55;;;5.00;99.90;;;;;;4933065;29;20048;-81
2023/11/16 07:06:48;;;;;;;3.55;0.90;;;5.70;99.90;;;;;;4916866;29;20048;-81
2023/11/16 07:09:17;;;;;;;2.78;0.73;;;5.40;99.90;;;;;;4932492;29;20489;-81
2023/11/16 07:11:44;;;;;;;2.80;0.82;;;5.30;99.90;;;;;;4918652;29;20044;-81
2023/11/16 07:14:10;;;;;;;1.60;0.90;;;5.20;99.90;;;;;;4932064;29;20040;-81
2023/11/16 07:16:37;;;;;;;4.07;1.60;;;4.80;99.90;;;;;;4929579;29;20052;-81
2023/11/16 07:19:04;;;;;;;3.70;0.85;;;4.80;99.90;;;;;;4941712;29;20063;-81
2023/11/16 07:21:31;;;;;;;2.35;0.77;;;5.40;99.90;;;;;;4918687;29;20044;-81
2023/11/16 07:23:59;;;;;;;2.30;0.80;;;4.70;99.90;;;;;;4916553;29;20044;-81
2023/11/16 07:26:25;;;;;;;7.05;1.23;;;5.10;99.90;;;;;;4931988;29;20048;-82
2023/11/16 07:28:52;;;;;;;2.22;1.10;;;4.80;99.90;;;;;;4939030;29;20175;-81
2023/11/16 07:31:21;;;;;;;7.18;2.40;;;5.10;99.90;;;;;;4923004;29;20463;-81
2023/11/16 07:33:54;;;;;;;6.75;2.17;;;4.80;99.90;;;;;;4934338;29;20048;-82
2023/11/16 07:36:25;;;;;;;7.88;2.58;;;5.20;99.90;;;;;;4928431;29;20478;-81
2023/11/16 07:38:53;;;;;;;5.50;2.17;;;5.00;99.90;;;;;;4934922;29;20043;-81
2023/11/16 07:41:21;;;;;;;4.40;1.90;;;5.10;99.90;;;;;;4931327;29;20131;-81
2023/11/16 07:43:48;;;;;;;6.63;1.60;;;5.20;99.90;;;;;;4931997;29;20490;-82
2023/11/16 07:46:15;;;;;;;7.43;1.50;;;5.30;99.90;;;;;;4932126;29;20070;-81
2023/11/16 07:48:42;;;;;;;6.95;2.45;;;5.30;99.90;;;;;;4928932;29;20041;-82
2023/11/16 07:51:09;;;;;;;6.05;2.72;;;5.40;99.90;;;;;;4928343;29;20040;-81
2023/11/16 07:53:41;;;;;;;8.05;3.10;;;5.50;99.90;;;;;;4912925;29;20113;-81
2023/11/16 07:56:08;;;;;;;5.18;2.00;;;5.60;99.90;;;;;;4910942;29;20044;-81
2023/11/16 07:58:37;;;;;;;9.10;2.13;;;5.70;99.90;;;;;;4924235;29;20566;-81
2023/11/16 08:01:04;;;;;;;3.88;1.83;;;5.70;99.90;;;;;;4938980;29;20092;-81
2023/11/16 08:03:43;;;;;;;3.70;1.77;;;5.80;99.90;;;;;;4916182;29;20096;-81
2023/11/16 08:06:12;;;;;;;4.63;1.55;;;5.90;99.90;;;;;;4912507;29;20045;-81
2023/11/16 08:08:45;;;;;;;5.82;1.80;;;6.80;99.90;;;;;;4910659;29;20044;-81
2023/11/16 08:11:14;;;;;;;7.38;1.67;;;5.90;99.90;;;;;;4916072;29;20104;-82
2023/11/16 08:13:41;;;;;;;8.57;2.00;;;5.90;99.90;;;;;;4932407;29;20048;-82
2023/11/16 08:16:16;;;;;;;7.35;1.70;;;6.00;99.90;;;;;;4927147;29;20512;-81
2023/11/16 08:18:43;;;;;;;6.65;1.58;;;6.30;99.90;;;;;;4914995;29;20047;-82
2023/11/16 08:21:10;;;;;;;4.82;1.52;;;6.40;99.90;;;;;;4915861;29;20382;-82
2023/11/16 08:23:41;;;;;;;6.03;1.50;;;6.70;99.90;;;;;;4929305;29;20421;-82
2023/11/16 08:26:12;;;;;;;3.75;1.50;;;6.00;99.90;;;;;;4915921;29;20036;-81
2023/11/16 08:28:41;;;;;;;4.13;1.50;;;6.40;99.90;;;;;;4915533;29;20045;-81
2023/11/16 08:31:12;;;;;;;3.55;1.50;;;6.70;99.90;;;;;;4940756;29;20047;-81
2023/11/16 08:33:40;;;;;;;6.68;1.58;;;6.00;99.90;;;;;;4918690;29;20124;-81
2023/11/16 08:36:11;;;;;;;4.50;1.42;;;6.20;99.90;;;;;;4915306;29;20517;-81
2023/11/16 08:38:47;;;;;;;2.53;1.40;;;5.90;99.90;;;;;;4931497;29;20462;-82
2023/11/16 08:41:17;;;;;;;4.88;1.98;;;5.90;99.90;;;;;;4915435;29;20424;-81
2023/11/16 08:43:46;;;;;;;4.40;1.35;;;5.80;99.90;;;;;;4932307;29;20103;-81
2023/11/16 08:46:25;;;;;;;6.00;1.58;;;5.80;99.90;;;;;;4933613;29;20052;-81
2023/11/16 08:49:12;;;;;;;;;;;5.80;99.90;;;;;;4933876;29;20052;-81
2023/11/16 08:51:38;;;;;;;4.93;1.50;;;5.70;99.90;;;;;;4922164;29;19958;-82
2023/11/16 08:54:08;;;;;;;2.90;1.30;;;5.70;99.90;;;;;;4935629;29;20056;-82
2023/11/16 08:56:36;;;;;;;6.93;2.10;;;5.90;99.90;;;;;;4915495;29;20075;-82
2023/11/16 08:59:07;;;;;;;4.20;1.92;;;6.10;99.90;;;;;;4928877;29;20707;-82
2023/11/16 09:01:37;;;;;;;4.78;1.80;;;5.80;99.90;;;;;;4929560;29;20061;-82
2023/11/16 09:04:05;;;;;;;4.72;1.40;;;5.90;99.90;;;;;;4910924;29;20060;-84
2023/11/16 09:06:37;;;;;;;4.00;1.50;;;5.90;99.90;;;;;;4915637;29;20414;-93
2023/11/16 09:09:22;;;;;;;3.72;1.42;;;6.30;99.90;;;;;;4916108;29;20788;-88
2023/11/16 09:11:50;;;;;;;4.55;1.50;;;6.10;99.90;;;;;;4915241;29;20068;-88
2023/11/16 09:14:17;;;;;;;4.93;1.75;;;6.40;99.90;;;;;;4931198;29;20041;-89
2023/11/16 09:16:44;;;;;;;3.35;1.65;;;7.10;99.90;;;;;;4927543;29;20044;-88
2023/11/16 09:19:11;;;;;;;3.22;1.50;;;7.10;99.90;;;;;;4921586;29;20047;-89
2023/11/16 09:21:39;;;;;;;4.15;1.60;;;6.30;99.90;;;;;;4930761;29;20103;-88
2023/11/16 09:24:07;;;;;;;8.40;1.80;;;7.20;99.90;;;;;;4931185;29;20135;-88
2023/11/16 09:26:34;;;;;;;7.25;2.05;;;6.50;99.90;;;;;;4917451;29;20865;-88
2023/11/16 09:29:02;;;;;;;5.53;1.60;;;7.50;99.90;;;;;;4934252;29;20043;-88
2023/11/16 09:31:29;;;;;;;4.05;1.70;;;7.30;99.90;;;;;;4919181;29;20045;-88
2023/11/16 09:34:00;;;;;;;4.88;1.95;;;7.60;99.90;;;;;;4914867;29;20443;-88
2023/11/16 09:36:29;;;;;;;8.43;1.80;;;6.70;99.90;;;;;;4927662;29;20046;-89
2023/11/16 09:38:57;;;;;;;6.80;1.83;;;7.40;99.90;;;;;;4922008;29;20050;-89
2023/11/16 09:41:25;;;;;;;12.73;1.70;;;7.50;99.90;;;;;;4934248;29;20059;-88
2023/11/16 09:43:59;;;;;;;4.20;1.50;;;6.90;99.90;;;;;;4922794;29;20056;-87
2023/11/16 09:46:30;;;;;;;4.93;1.55;;;6.90;99.90;;;;;;4915426;29;20827;-88
2023/11/16 09:49:05;;;;;;;6.45;1.90;;;6.60;99.90;;;;;;4927617;29;20864;-88
2023/11/16 09:51:34;;;;;;;3.40;1.55;;;8.00;99.90;;;;;;4915777;29;20092;-88
2023/11/16 09:54:02;;;;;;;3.45;1.60;;;7.10;99.90;;;;;;4915465;29;20044;-89
2023/11/16 09:56:36;;;;;;;5.63;1.45;;;7.10;99.90;;;;;;4906246;29;20041;-88
2023/11/16 09:59:13;;;;;;;3.85;1.35;;;7.40;99.90;;;;;;4913266;29;20123;-88
2023/11/16 10:01:52;;;;;;;7.75;1.90;;;7.20;99.90;;;;;;4930840;29;20153;-88
2023/11/16 10:04:19;;;;;;;4.18;1.70;;;7.90;99.90;;;;;;4927778;29;20056;-88
2023/11/16 10:06:49;;;;;;;6.38;1.70;;;7.30;99.90;;;;;;4919459;29;20092;-88
2023/11/16 10:09:17;;;;;;;4.72;1.42;;;8.20;99.90;;;;;;4924315;29;20048;-88
2023/11/16 10:11:43;;;;;;;5.68;1.30;;;7.40;99.90;;;;;;4918529;29;20040;-88
2023/11/16 10:14:10;;;;;;;5.00;1.20;;;7.40;99.90;;;;;;4925068;29;20036;-88
2023/11/16 10:16:38;;;;;;;5.03;1.45;;;7.40;99.90;;;;;;4921740;29;20051;-89
2023/11/16 10:19:07;;;;;;;3.90;0.93;;;7.90;99.90;;;;;;4933691;29;20084;-89
2023/11/16 10:21:39;;;;;;;2.38;0.80;;;7.80;99.90;;;;;;4932547;29;20095;-88
2023/11/16 10:24:09;;;;;;;4.65;1.13;;;8.20;99.90;;;;;;4918123;29;20041;-89
2023/11/16 10:26:35;;;;;;;4.28;0.93;;;7.60;99.90;;;;;;4919106;29;20185;-89
2023/11/16 10:29:02;;;;;;;8.68;0.80;;;7.60;99.90;;;;;;4918916;29;20104;-89
2023/11/16 10:31:32;;;;;;;2.22;0.85;;;7.60;99.90;;;;;;4934336;29;20045;-89
2023/11/16 10:33:59;;;;;;;2.92;0.90;;;8.70;99.90;;;;;;4939870;29;20051;-89
2023/11/16 10:36:26;;;;;;;4.90;0.85;;;7.70;99.90;;;;;;4925544;29;20036;-89
2023/11/16 10:38:57;;;;;;;1.95;0.40;;;8.60;99.90;;;;;;4918494;29;20131;-89
2023/11/16 10:41:24;;;;;;;3.00;0.80;;;8.80;99.90;;;;;;4918901;29;20077;-88
2023/11/16 10:43:56;;;;;;;5.75;1.08;;;8.90;99.90;;;;;;4918315;29;20044;-89
2023/11/16 10:46:27;;;;;;;2.05;0.70;;;7.80;99.90;;;;;;4924307;29;20050;-89
2023/11/16 10:48:53;;;;;;;2.78;1.25;;;7.90;99.90;;;;;;4937479;29;20552;-89
2023/11/16 10:51:24;;;;;;;0.93;0.52;;;7.90;99.90;;;;;;4934502;29;20128;-89
2023/11/16 10:54:03;;;;;;;3.17;0.80;;;8.40;99.90;;;;;;4935486;29;20119;-89
2023/11/16 10:56:37;;;;;;;1.25;0.63;;;8.10;99.90;;;;;;4918532;29;20045;-89
2023/11/16 10:59:05;;;;;;;1.38;0.60;;;8.50;99.90;;;;;;4918180;29;20040;-89
2023/11/16 11:01:34;;;;;;;2.88;1.02;;;8.80;99.90;;;;;;4935202;29;20064;-89
2023/11/16 11:04:01;;;;;;;6.85;0.70;;;9.30;99.90;;;;;;4913564;29;20049;-89
2023/11/16 11:06:28;;;;;;;5.22;0.70;;;8.40;99.90;;;;;;4910503;29;20095;-88
2023/11/16 11:08:57;;;;;;;1.35;0.50;;;8.50;99.90;;;;;;4935042;29;20048;-89
2023/11/16 11:11:26;;;;;;;2.40;0.88;;;9.00;99.90;;;;;;4924660;29;20052;-89
2023/11/16 11:13:57;;;;;;;5.47;0.60;;;9.20;99.90;;;;;;4930537;29;20107;-89
2023/11/16 11:16:29;;;;;;;4.68;0.80;;;8.60;99.90;;;;;;4918668;29;20414;-89
2023/11/16 11:18:57;;;;;;;2.22;0.60;;;8.90;99.90;;;;;;4933149;29;20032;-89
2023/11/16 11:21:26;;;;;;;5.55;0.63;;;8.60;99.90;;;;;;4936522;29;20048;-89
2023/11/16 11:24:08;;;;;;;3.33;0.60;;;8.60;99.90;;;;;;4918505;29;20083;-89
2023/11/16 11:26:48;;;;;;;2.67;0.65;;;8.60;99.90;;;;;;4932841;29;20049;-88
2023/11/16 11:29:16;;;;;;;3.95;0.70;;;8.60;99.90;;;;;;4917713;29;20040;-89
2023/11/16 11:32:17;;;;;;;2.45;0.68;;;8.70;99.90;;;;;;4917386;29;20524;-89
2023/11/16 11:34:44;;;;;;;1.38;0.45;;;8.60;99.90;;;;;;4918898;29;20064;-90
2023/11/16 11:37:10;;;;;;;1.50;0.40;;;8.70;99.90;;;;;;4920868;29;20075;-89
2023/11/16 11:39:40;;;;;;;1.48;0.50;;;8.50;99.90;;;;;;4928951;29;20048;-90
2023/11/16 11:42:09;;;;;;;1.45;0.60;;;9.30;99.90;;;;;;4917769;29;20083;-89
2023/11/16 11:44:35;;;;;;;1.13;0.50;;;8.50;99.90;;;;;;4923469;29;20048;-89
2023/11/16 11:47:03;;;;;;;4.82;0.80;;;8.50;99.90;;;;;;4925423;29;20041;-89
2023/11/16 11:49:33;;;;;;;1.30;0.50;;;8.50;99.90;;;;;;4929244;29;20052;-90
2023/11/16 11:52:01;;;;;;;3.33;0.60;;;8.50;99.90;;;;;;4927074;29;20123;-90
2023/11/16 11:54:46;;;;;;;1.33;0.50;;;8.50;99.90;;;;;;4901666;29;20103;-89
2023/11/16 11:57:13;;;;;;;5.05;0.90;;;9.00;99.90;;;;;;4928391;29;20041;-90
2023/11/16 11:59:40;;;;;;;2.60;0.50;;;8.70;99.90;;;;;;4932286;29;20071;-89
2023/11/16 12:02:08;;;;;;;1.85;0.63;;;9.10;99.90;;;;;;4917120;29;20394;-89
2023/11/16 12:04:36;;;;;;;2.17;0.65;;;8.40;99.90;;;;;;4927004;29;20102;-89
2023/11/16 12:07:10;;;;;;;4.05;0.70;;;8.40;99.90;;;;;;4919873;29;20051;-89
2023/11/16 12:09:38;;;;;;;1.02;0.47;;;8.40;99.90;;;;;;4932387;29;20489;-88
2023/11/16 12:12:06;;;;;;;0.63;0.43;;;8.50;99.90;;;;;;4917136;29;20188;-88
2023/11/16 12:14:46;;;;;;;2.30;0.70;;;8.50;99.90;;;;;;4916440;29;20482;-89
2023/11/16 12:17:18;;;;;;;2.83;0.65;;;8.50;99.90;;;;;;4921989;29;20059;-89
2023/11/16 12:19:52;;;;;;;2.00;0.63;;;8.50;99.90;;;;;;4927694;29;20043;-89
2023/11/16 12:22:20;;;;;;;3.30;0.80;;;8.50;99.90;;;;;;4924072;29;20383;-88
2023/11/16 12:24:47;;;;;;;5.00;1.67;;;8.70;99.90;;;;;;4923298;29;20521;-88
2023/11/16 12:27:15;;;;;;;2.67;0.70;;;9.40;99.90;;;;;;4928665;29;20044;-89
2023/11/16 12:29:58;;;;;;;4.00;0.70;;;8.90;99.90;;;;;;4937068;29;20553;-89
2023/11/16 12:32:29;;;;;;;4.22;0.75;;;8.60;99.90;;;;;;4922104;29;20043;-88
2023/11/16 12:34:55;;;;;;;2.40;0.60;;;8.70;99.90;;;;;;4922011;29;20045;-89
2023/11/16 12:37:25;;;;;;;4.85;0.70;;;9.40;99.90;;;;;;4916976;29;20044;-89
2023/11/16 12:39:51;;;;;;;1.08;0.50;;;8.60;99.90;;;;;;4917164;29;20117;-89
2023/11/16 12:42:22;;;;;;;2.88;0.60;;;8.60;99.90;;;;;;4932149;29;20053;-89
2023/11/16 12:44:50;;;;;;;2.08;0.47;;;9.20;99.90;;;;;;4932481;29;20100;-89
2023/11/16 12:47:17;;;;;;;0.63;0.43;;;9.20;99.90;;;;;;4944788;29;20052;-89
2023/11/16 12:49:43;;;;;;;1.13;0.50;;;9.10;99.90;;;;;;4928396;29;20043;-88
2023/11/16 12:52:10;;;;;;;6.80;0.77;;;9.40;99.90;;;;;;4930205;29;20048;-89
2023/11/16 12:54:37;;;;;;;3.67;0.63;;;9.20;99.90;;;;;;4922949;29;20051;-89
2023/11/16 12:57:04;;;;;;;2.15;0.70;;;8.40;99.90;;;;;;4916516;29;20439;-88
2023/11/16 12:59:32;;;;;;;1.02;0.50;;;8.40;99.90;;;;;;4916833;29;20037;-89
2023/11/16 13:01:58;;;;;;;0.65;0.50;;;9.60;99.90;;;;;;4934957;29;20081;-88
2023/11/16 13:04:25;;;;;;;3.13;0.70;;;9.10;99.90;;;;;;4918593;29;20786;-89